.
WxDataArchive / Data Records for 2007-10-11
2007-10-10 October 2007 2007-10-12

Data Records for Thursday, 11 October 2007

Time	Temp	Chill	HIndex	Humid	Dewpt	 Wind 	HiWind	WindDir	Rain 	Barom 
-----	----	-----	------	-----	-----	------	------	-------	-----	----- 
00:00	46.7	46.7	46.7	94	45.1	0	1	248	0.00	29.775 
00:05	46.7	46.7	46.7	94	45.1	0	1	248	0.00	29.773 
00:10	46.8	46.8	46.8	94	45.2	0	1	248	0.00	29.775 
00:15	46.8	46.8	46.8	95	45.4	0	1	248	0.00	29.776 
00:20	47.0	47.0	47.0	95	45.6	0	1	248	0.00	29.773 
00:25	47.0	47.0	47.0	95	45.6	0	1	248	0.00	29.770 
00:30	47.0	47.0	47.0	95	45.6	0	1	248	0.00	29.773 
00:35	47.0	47.0	47.0	95	45.6	0	1	248	0.00	29.776 
00:40	47.0	47.0	47.0	95	45.6	0	1	248	0.00	29.777 
00:45	47.0	47.0	47.0	95	45.6	0	1	248	0.00	29.770 
00:50	47.0	47.0	47.0	95	45.6	0	1	248	0.00	29.770 
00:55	47.0	47.0	47.0	95	45.6	0	1	248	0.00	29.771 
01:00	47.0	47.0	47.0	95	45.6	0	1	248	0.00	29.772 
01:05	47.0	47.0	47.0	95	45.6	0	1	248	0.00	29.768 
01:10	47.0	47.0	47.0	95	45.6	0	0	---	0.00	29.768 
01:15	47.1	47.1	47.1	95	45.7	0	0	---	0.00	29.772 
01:20	47.1	47.1	47.1	95	45.7	0	0	---	0.00	29.774 
01:25	47.0	47.0	47.0	95	45.6	0	1	248	0.00	29.774 
01:30	46.7	46.7	46.7	95	45.3	0	1	248	0.00	29.776 
01:35	46.5	46.5	46.5	95	45.1	0	1	292	0.00	29.778 
01:40	46.5	46.5	46.5	95	45.1	0	1	292	0.00	29.781 
01:45	46.4	46.4	46.4	95	45.0	0	1	292	0.00	29.784 
01:50	46.4	46.4	46.4	95	45.0	0	1	292	0.00	29.781 
01:55	46.4	46.4	46.4	95	45.0	0	0	---	0.00	29.779 
02:00	46.2	46.2	46.2	95	44.8	0	1	292	0.00	29.779 
02:05	46.4	46.4	46.4	95	45.0	0	1	292	0.00	29.784 
02:10	46.2	46.2	46.2	95	44.8	0	2	292	0.00	29.781 
02:15	46.2	46.2	46.2	95	44.8	0	1	292	0.00	29.781 
02:20	46.1	46.1	46.1	95	44.7	0	1	292	0.00	29.782 
02:25	46.1	46.1	46.1	95	44.7	0	2	292	0.00	29.783 
02:30	46.0	46.0	46.0	95	44.6	0	1	292	0.00	29.784 
02:35	45.8	45.8	45.8	94	44.2	0	2	292	0.00	29.788 
02:40	45.5	45.5	45.5	94	43.9	0	1	292	0.00	29.788 
02:45	45.5	45.5	45.5	94	43.9	0	1	292	0.00	29.785 
02:50	45.4	45.4	45.4	94	43.8	0	1	292	0.00	29.785 
02:55	45.1	45.1	45.1	94	43.5	0	1	292	0.00	29.783 
03:00	44.9	44.9	44.9	94	43.3	0	0	---	0.00	29.784 
03:05	44.8	44.8	44.8	94	43.2	0	1	292	0.00	29.788 
03:10	44.6	44.6	44.6	94	43.0	0	1	292	0.00	29.794 
03:15	44.5	44.5	44.5	94	42.9	0	1	292	0.00	29.795 
03:20	44.6	44.6	44.6	94	43.0	0	2	292	0.00	29.796 
03:25	44.6	44.6	44.6	95	43.3	0	1	292	0.00	29.797 
03:30	44.8	44.8	44.8	95	43.5	0	1	292	0.00	29.796 
03:35	44.8	44.8	44.8	94	43.2	0	1	292	0.00	29.797 
03:40	44.8	44.8	44.8	94	43.2	0	1	292	0.00	29.797 
03:45	44.6	44.6	44.6	94	43.0	0	1	292	0.00	29.797 
03:50	44.6	44.6	44.6	94	43.0	0	1	292	0.00	29.797 
03:55	44.6	44.6	44.6	94	43.0	0	1	292	0.00	29.799 
04:00	44.6	44.6	44.6	94	43.0	0	0	---	0.00	29.796 
04:05	44.6	44.6	44.6	94	43.0	0	1	292	0.00	29.797 
04:10	44.5	44.5	44.5	94	42.9	0	1	292	0.00	29.797 
04:15	44.5	44.5	44.5	94	42.9	0	0	---	0.00	29.796 
04:20	44.5	44.5	44.5	94	42.9	0	1	292	0.00	29.797 
04:25	44.5	44.5	44.5	94	42.9	0	0	---	0.00	29.798 
04:30	44.6	44.6	44.6	94	43.0	0	1	292	0.00	29.797 
04:35	44.8	44.8	44.8	94	43.2	0	2	292	0.00	29.798 
04:40	45.1	45.1	45.1	95	43.8	0	0	---	0.00	29.797 
04:45	45.1	45.1	45.1	95	43.8	0	1	292	0.00	29.796 
04:50	45.2	45.2	45.2	94	43.6	0	0	---	0.00	29.797 
04:55	45.4	45.4	45.4	94	43.8	0	1	292	0.00	29.798 
05:00	45.4	45.4	45.4	94	43.8	0	1	292	0.00	29.797 
05:05	45.5	45.5	45.5	94	43.9	0	0	---	0.00	29.798 
05:10	45.7	45.7	45.7	94	44.1	0	0	---	0.00	29.798 
05:15	45.7	45.7	45.7	94	44.1	0	0	---	0.00	29.797 
05:20	45.8	45.8	45.8	94	44.2	0	1	292	0.00	29.800 
05:25	45.8	45.8	45.8	94	44.2	0	1	292	0.00	29.800 
05:30	45.8	45.8	45.8	94	44.2	0	1	292	0.00	29.798 
05:35	46.0	46.0	46.0	94	44.4	0	1	292	0.00	29.802 
05:40	46.0	46.0	46.0	94	44.4	0	1	292	0.00	29.800 
05:45	46.0	46.0	46.0	94	44.4	0	1	292	0.00	29.804 
05:50	46.1	46.1	46.1	94	44.5	0	2	292	0.00	29.809 
05:55	46.1	46.1	46.1	94	44.5	0	2	292	0.00	29.810 
06:00	46.1	46.1	46.1	93	44.2	0	2	292	0.00	29.811 
06:05	46.1	46.1	46.1	93	44.2	0	2	292	0.00	29.814 
06:10	46.1	46.1	46.1	93	44.2	0	1	292	0.00	29.814 
06:15	46.1	46.1	46.1	93	44.2	0	1	292	0.00	29.812 
06:20	46.0	46.0	46.0	92	43.8	0	0	---	0.00	29.811 
06:25	45.8	45.8	45.8	92	43.6	0	1	292	0.00	29.811 
06:30	45.8	45.8	45.8	92	43.6	0	1	292	0.00	29.812 
06:35	45.8	45.8	45.8	92	43.6	0	1	292	0.00	29.812 
06:40	46.0	46.0	46.0	92	43.8	0	2	292	0.00	29.812 
06:45	46.0	46.0	46.0	92	43.8	0	2	248	0.00	29.814 
06:50	46.1	46.1	46.1	92	43.9	0	2	248	0.00	29.817 
06:55	46.1	46.1	46.1	92	43.9	0	2	315	0.00	29.819 
07:00	46.2	46.2	46.2	92	44.0	0	3	292	0.00	29.818 
07:05	46.2	46.2	46.2	92	44.0	0	3	292	0.00	29.818 
07:10	46.2	46.2	46.2	92	44.0	0	2	338	0.00	29.822 
07:15	46.4	46.4	46.4	92	44.2	0	2	315	0.00	29.825 
07:20	46.5	46.5	46.5	92	44.3	0	1	315	0.00	29.824 
07:25	46.5	46.5	46.5	91	44.0	0	2	315	0.00	29.828 
07:30	46.7	46.7	46.7	91	44.2	0	3	315	0.00	29.828 
07:35	46.8	46.8	46.8	91	44.3	1	3	315	0.00	29.828 
07:40	46.8	46.8	46.8	91	44.3	0	2	292	0.00	29.827 
07:45	47.0	47.0	47.0	91	44.5	1	3	315	0.00	29.827 
07:50	47.0	47.0	47.0	91	44.5	0	1	315	0.00	29.828 
07:55	47.0	47.0	47.0	92	44.8	0	4	315	0.00	29.828 
08:00	47.0	47.0	47.0	92	44.8	0	2	292	0.00	29.830 
08:05	47.0	47.0	47.0	92	44.8	1	2	292	0.00	29.831 
08:10	47.1	47.1	47.1	92	44.9	0	2	270	0.00	29.832 
08:15	47.3	47.3	47.3	92	45.1	0	2	270	0.00	29.829 
08:20	47.3	47.3	47.3	92	45.1	0	2	270	0.00	29.831 
08:25	47.4	47.4	47.4	92	45.2	0	2	225	0.00	29.837 
08:30	47.6	47.6	47.6	92	45.4	0	1	248	0.00	29.839 
08:35	47.7	47.7	47.7	92	45.5	0	2	248	0.00	29.841 
08:40	47.9	47.9	47.9	92	45.7	0	1	248	0.00	29.842 
08:45	48.0	48.0	48.0	92	45.8	0	1	248	0.00	29.843 
08:50	48.3	48.3	48.3	92	46.1	0	2	248	0.00	29.842 
08:55	48.5	48.5	48.5	91	46.0	0	2	292	0.00	29.842 
09:00	48.5	48.5	48.5	90	45.7	0	2	292	0.00	29.842 
09:05	48.8	48.8	48.8	90	46.0	0	4	292	0.00	29.843 
09:10	48.8	48.8	48.8	90	46.0	0	2	292	0.00	29.842 
09:15	48.9	48.9	48.9	89	45.8	1	5	292	0.00	29.842 
09:20	49.1	49.1	49.1	89	46.0	1	3	270	0.00	29.842 
09:25	49.2	49.2	49.2	88	45.8	1	3	315	0.00	29.842 
09:30	49.5	49.5	49.5	88	46.1	0	2	315	0.00	29.844 
09:35	49.6	49.6	49.6	88	46.2	0	3	315	0.00	29.844 
09:40	49.8	49.8	49.8	88	46.4	0	2	292	0.00	29.846 
09:45	50.1	50.1	50.1	87	46.4	1	3	292	0.00	29.845 
09:50	50.2	50.2	50.2	85	45.9	1	2	338	0.00	29.846 
09:55	50.4	50.4	50.4	86	46.4	0	2	338	0.00	29.844 
10:00	50.5	50.5	50.5	85	46.2	1	2	315	0.00	29.845 
10:05	50.7	50.7	50.7	85	46.4	0	2	315	0.00	29.848 
10:10	50.8	50.8	50.8	84	46.1	1	3	315	0.00	29.849 
10:15	50.8	50.8	50.8	84	46.1	1	3	292	0.00	29.850 
10:20	51.0	51.0	51.0	83	46.0	1	4	292	0.00	29.852 
10:25	50.8	50.8	50.8	82	45.5	1	5	315	0.00	29.853 
10:30	50.8	50.8	50.8	82	45.5	1	4	292	0.00	29.853 
10:35	51.0	51.0	51.0	82	45.7	1	3	292	0.00	29.851 
10:40	51.3	51.3	51.3	81	45.7	1	3	292	0.00	29.848 
10:45	51.7	51.7	51.7	80	45.7	1	3	315	0.00	29.846 
10:50	51.7	51.7	51.7	79	45.4	1	4	315	0.00	29.846 
10:55	52.0	52.0	52.0	80	46.0	1	3	315	0.00	29.848 
11:00	52.2	52.2	52.2	79	45.9	2	6	292	0.00	29.849 
11:05	52.5	52.5	52.5	79	46.2	1	3	292	0.00	29.850 
11:10	52.6	52.6	52.6	77	45.6	1	5	315	0.00	29.852 
11:15	52.6	52.6	52.6	76	45.3	2	4	292	0.00	29.849 
11:20	52.9	52.9	52.9	76	45.5	1	3	292	0.00	29.847 
11:25	53.2	53.2	53.2	77	46.2	1	3	270	0.00	29.848 
11:30	53.3	53.3	53.3	75	45.6	2	6	292	0.00	29.848 
11:35	53.2	53.2	53.2	74	45.1	1	3	338	0.00	29.851 
11:40	53.1	53.1	53.1	75	45.4	1	3	315	0.00	29.851 
11:45	52.9	52.9	52.9	75	45.2	1	3	292	0.00	29.851 
11:50	53.1	53.1	53.1	75	45.4	1	4	315	0.00	29.852 
11:55	53.2	53.2	53.2	74	45.1	1	4	292	0.00	29.852 
12:00	53.2	53.2	53.2	73	44.8	2	6	338	0.00	29.851 
12:05	53.3	53.3	53.3	74	45.2	2	4	315	0.00	29.851 
12:10	53.5	53.5	53.5	75	45.8	1	3	270	0.00	29.851 
12:15	53.9	53.9	53.9	74	45.8	2	4	270	0.00	29.850 
12:20	53.9	53.9	53.9	72	45.1	2	6	315	0.00	29.850 
12:25	54.1	54.1	54.1	72	45.3	2	5	270	0.00	29.846 
12:30	53.9	53.9	53.9	73	45.4	2	5	270	0.00	29.846 
12:35	53.9	53.9	53.9	73	45.4	1	5	270	0.00	29.843 
12:40	54.7	54.7	54.7	74	46.6	1	4	270	0.00	29.842 
12:45	55.0	55.0	55.0	72	46.1	1	3	315	0.00	29.840 
12:50	54.8	54.8	54.8	73	46.3	0	3	315	0.00	29.841 
12:55	54.5	54.5	54.5	73	46.0	1	4	292	0.00	29.841 
13:00	54.2	54.2	54.2	72	45.4	2	4	315	0.00	29.841 
13:05	54.1	54.1	54.1	73	45.6	1	3	315	0.00	29.842 
13:10	53.9	53.9	53.9	73	45.4	2	6	292	0.00	29.840 
13:15	54.1	54.1	54.1	74	46.0	0	2	315	0.00	29.839 
13:20	54.1	54.1	54.1	73	45.6	1	4	292	0.00	29.838 
13:25	54.1	54.1	54.1	73	45.6	1	4	292	0.00	29.838 
13:30	54.2	54.2	54.2	73	45.7	0	2	338	0.00	29.838 
13:35	54.2	54.2	54.2	73	45.7	0	2	338	0.00	29.838 
13:40	54.4	54.4	54.4	73	45.9	1	3	315	0.00	29.838 
13:45	54.4	54.4	54.4	73	45.9	0	2	315	0.00	29.839 
13:50	54.2	54.2	54.2	72	45.4	1	4	0	0.00	29.839 
13:55	53.9	53.9	53.9	72	45.1	1	5	0	0.00	29.839 
14:00	53.8	53.8	53.8	73	45.3	1	9	270	0.00	29.838 
14:05	53.8	53.8	53.8	72	45.0	1	4	315	0.00	29.840 
14:10	53.8	53.8	53.8	71	44.6	0	3	315	0.00	29.841 
14:15	53.8	53.8	53.8	72	45.0	0	2	135	0.00	29.841 
14:20	53.8	53.8	53.8	72	45.0	0	2	315	0.00	29.842 
14:25	53.8	53.8	53.8	71	44.6	1	3	315	0.00	29.843 
14:30	53.6	53.6	53.6	71	44.4	0	3	22	0.00	29.844 
14:35	53.6	53.6	53.6	71	44.4	0	2	22	0.00	29.842 
14:40	53.6	53.6	53.6	71	44.4	1	4	22	0.00	29.842 
14:45	53.6	53.6	53.6	71	44.4	1	3	45	0.00	29.842 
14:50	53.6	53.6	53.6	71	44.4	0	2	338	0.00	29.842 
14:55	53.6	53.6	53.6	71	44.4	1	5	0	0.00	29.844 
15:00	53.5	53.5	53.5	72	44.7	1	3	292	0.00	29.844 
15:05	53.5	53.5	53.5	71	44.3	0	2	292	0.00	29.844 
15:10	53.6	53.6	53.6	72	44.8	0	1	292	0.00	29.846 
15:15	53.8	53.8	53.8	71	44.6	0	1	292	0.00	29.849 
15:20	53.9	53.9	53.9	70	44.3	0	3	315	0.00	29.850 
15:25	53.9	53.9	53.9	71	44.7	0	2	292	0.00	29.850 
15:30	54.1	54.1	54.1	71	44.9	0	1	292	0.00	29.852 
15:35	53.9	53.9	53.9	70	44.3	0	1	292	0.00	29.852 
15:40	53.9	53.9	53.9	70	44.3	0	2	292	0.00	29.852 
15:45	53.9	53.9	53.9	71	44.7	0	2	292	0.00	29.849 
15:50	53.9	53.9	53.9	71	44.7	0	3	292	0.00	29.850 
15:55	53.9	53.9	53.9	71	44.7	0	1	292	0.00	29.849 
16:00	53.9	53.9	53.9	69	44.0	1	4	292	0.00	29.851 
16:05	53.9	53.9	53.9	70	44.3	0	1	270	0.00	29.854 
16:10	53.9	53.9	53.9	70	44.3	0	1	270	0.00	29.855 
16:15	53.9	53.9	53.9	70	44.3	0	1	270	0.00	29.855 
16:20	53.8	53.8	53.8	70	44.2	0	1	270	0.00	29.856 
16:25	53.8	53.8	53.8	70	44.2	0	1	270	0.00	29.855 
16:30	53.8	53.8	53.8	70	44.2	0	2	292	0.00	29.856 
16:35	53.6	53.6	53.6	70	44.1	0	2	292	0.00	29.856 
16:40	53.6	53.6	53.6	70	44.1	0	2	292	0.00	29.856 
16:45	53.6	53.6	53.6	70	44.1	0	1	292	0.00	29.857 
16:50	53.5	53.5	53.5	71	44.3	0	0	---	0.00	29.858 
16:55	53.5	53.5	53.5	70	44.0	0	1	315	0.00	29.858 
17:00	53.3	53.3	53.3	70	43.8	0	1	315	0.00	29.863 
17:05	53.3	53.3	53.3	71	44.1	0	1	315	0.00	29.865 
17:10	53.3	53.3	53.3	71	44.1	0	2	292	0.00	29.865 
17:15	53.2	53.2	53.2	71	44.0	0	1	292	0.00	29.868 
17:20	53.2	53.2	53.2	71	44.0	0	2	292	0.00	29.869 
17:25	53.2	53.2	53.2	72	44.4	0	1	292	0.00	29.869 
17:30	53.1	53.1	53.1	72	44.3	0	1	292	0.00	29.870 
17:35	53.1	53.1	53.1	72	44.3	0	1	292	0.00	29.870 
17:40	53.1	53.1	53.1	73	44.7	0	1	292	0.00	29.871 
17:45	53.1	53.1	53.1	72	44.3	0	1	292	0.00	29.872 
17:50	52.9	52.9	52.9	72	44.1	0	1	292	0.00	29.872 
17:55	52.9	52.9	52.9	73	44.5	0	1	292	0.00	29.873 
18:00	52.9	52.9	52.9	73	44.5	0	1	292	0.00	29.874 
18:05	52.9	52.9	52.9	73	44.5	0	1	292	0.00	29.877 
18:10	52.8	52.8	52.8	73	44.4	0	1	292	0.00	29.878 
18:15	52.8	52.8	52.8	73	44.4	0	2	292	0.00	29.879 
18:20	52.8	52.8	52.8	72	44.0	0	1	292	0.00	29.880 
18:25	52.8	52.8	52.8	72	44.0	0	1	292	0.00	29.882 
18:30	52.8	52.8	52.8	73	44.4	0	1	292	0.00	29.884 
18:35	52.8	52.8	52.8	73	44.4	0	1	292	0.00	29.885 
18:40	52.6	52.6	52.6	73	44.2	0	1	292	0.00	29.886 
18:45	52.6	52.6	52.6	73	44.2	0	1	292	0.00	29.887 
18:50	52.6	52.6	52.6	73	44.2	0	1	292	0.00	29.887 
18:55	52.6	52.6	52.6	73	44.2	0	1	292	0.00	29.887 
19:00	52.6	52.6	52.6	73	44.2	0	1	292	0.00	29.887 
19:05	52.5	52.5	52.5	74	44.5	0	0	---	0.00	29.886 
19:10	52.5	52.5	52.5	74	44.5	0	2	292	0.00	29.886 
19:15	52.3	52.3	52.3	74	44.3	0	2	292	0.00	29.889 
19:20	52.2	52.2	52.2	74	44.2	0	2	292	0.00	29.889 
19:25	52.0	52.0	52.0	75	44.3	0	1	292	0.00	29.888 
19:30	52.0	52.0	52.0	75	44.3	0	0	---	0.00	29.888 
19:35	52.0	52.0	52.0	75	44.3	0	1	292	0.00	29.889 
19:40	51.9	51.9	51.9	75	44.2	0	1	292	0.00	29.889 
19:45	51.9	51.9	51.9	75	44.2	0	1	292	0.00	29.889 
19:50	51.9	51.9	51.9	75	44.2	0	0	---	0.00	29.891 
19:55	51.7	51.7	51.7	76	44.4	0	1	292	0.00	29.894 
20:00	51.7	51.7	51.7	77	44.7	0	0	---	0.00	29.895 
20:05	51.7	51.7	51.7	76	44.4	0	1	292	0.00	29.896 
20:10	51.6	51.6	51.6	77	44.6	0	0	---	0.00	29.897 
20:15	51.6	51.6	51.6	77	44.6	0	1	292	0.00	29.896 
20:20	51.6	51.6	51.6	77	44.6	0	1	292	0.00	29.897 
20:25	51.6	51.6	51.6	77	44.6	0	1	292	0.00	29.899 
20:30	51.6	51.6	51.6	76	44.3	0	1	292	0.00	29.897 
20:35	51.6	51.6	51.6	76	44.3	0	1	292	0.00	29.896 
20:40	51.4	51.4	51.4	77	44.4	0	1	292	0.00	29.897 
20:45	51.4	51.4	51.4	76	44.1	0	0	---	0.00	29.897 
20:50	51.4	51.4	51.4	77	44.4	0	1	292	0.00	29.899 
20:55	51.4	51.4	51.4	77	44.4	0	1	292	0.00	29.900 
21:00	51.4	51.4	51.4	77	44.4	0	0	---	0.00	29.901 
21:05	51.4	51.4	51.4	77	44.4	0	0	---	0.00	29.899 
21:10	51.3	51.3	51.3	77	44.3	0	0	---	0.00	29.899 
21:15	51.3	51.3	51.3	77	44.3	0	0	---	0.00	29.899 
21:20	51.3	51.3	51.3	77	44.3	0	0	---	0.00	29.899 
21:25	51.3	51.3	51.3	77	44.3	0	0	---	0.00	29.898 
21:30	51.1	51.1	51.1	77	44.1	0	0	---	0.00	29.899 
21:35	51.1	51.1	51.1	77	44.1	0	1	292	0.00	29.900 
21:40	51.1	51.1	51.1	77	44.1	0	0	---	0.00	29.900 
21:45	51.1	51.1	51.1	77	44.1	0	1	292	0.00	29.901 
21:50	51.1	51.1	51.1	78	44.5	0	0	---	0.00	29.901 
21:55	51.1	51.1	51.1	78	44.5	0	0	---	0.00	29.902 
22:00	51.1	51.1	51.1	78	44.5	0	1	292	0.00	29.901 
22:05	51.0	51.0	51.0	78	44.4	0	1	292	0.00	29.901 
22:10	51.0	51.0	51.0	78	44.4	0	0	---	0.00	29.902 
22:15	51.0	51.0	51.0	78	44.4	0	1	292	0.00	29.905 
22:20	50.8	50.8	50.8	78	44.2	0	1	292	0.00	29.906 
22:25	50.8	50.8	50.8	78	44.2	0	1	292	0.00	29.905 
22:30	50.8	50.8	50.8	77	43.9	0	1	292	0.00	29.905 
22:35	50.7	50.7	50.7	77	43.8	0	1	292	0.00	29.905 
22:40	50.7	50.7	50.7	77	43.8	0	1	292	0.00	29.906 
22:45	50.5	50.5	50.5	78	43.9	0	1	292	0.00	29.905 
22:50	50.5	50.5	50.5	78	43.9	0	0	---	0.00	29.906 
22:55	50.5	50.5	50.5	78	43.9	0	0	---	0.00	29.906 
23:00	50.5	50.5	50.5	78	43.9	0	1	292	0.00	29.909 
23:05	50.4	50.4	50.4	78	43.8	0	0	---	0.00	29.908 
23:10	50.4	50.4	50.4	79	44.1	0	0	---	0.00	29.909 
23:15	50.4	50.4	50.4	79	44.1	0	0	---	0.00	29.911 
23:20	50.2	50.2	50.2	80	44.3	0	0	---	0.00	29.912 
23:25	50.2	50.2	50.2	79	43.9	0	1	292	0.00	29.912 
23:30	50.2	50.2	50.2	80	44.3	0	0	---	0.00	29.912 
23:35	50.2	50.2	50.2	80	44.3	0	0	---	0.00	29.914 
23:40	50.2	50.2	50.2	80	44.3	0	0	---	0.00	29.914 
23:45	50.1	50.1	50.1	80	44.2	0	0	---	0.00	29.913 
23:50	50.1	50.1	50.1	80	44.2	0	1	292	0.00	29.914 
23:55	50.1	50.1	50.1	81	44.5	0	1	292	0.00	29.913 

CoCoRaHS
IN-AL-39
A2 Web Hosting
Creative Commons License
GoDaddy
Look for:

loaded 2017-12-11 14:25:38 • last modified 2010-11-18 10:43:29
Privacy PolicyDisclaimer
• wx.awcolley.com is powered by PmWiki v.2002016 •
• all content (unless otherwise noted) © 2017 A W Colley